createdAt,value
2018-07-28T00:01:17.214Z,19.20
2018-07-28T00:06:21.258Z,25.20
2018-07-28T00:11:25.049Z,21.40
2018-07-28T00:16:28.660Z,21.00
2018-07-28T00:21:32.555Z,24.00
2018-07-28T00:26:36.259Z,25.00
2018-07-28T00:31:39.914Z,25.25
2018-07-28T00:36:43.654Z,24.60
2018-07-28T00:41:47.322Z,23.75
2018-07-28T00:46:51.003Z,23.25
2018-07-28T00:51:54.667Z,19.00
2018-07-28T00:56:58.310Z,21.50
2018-07-28T01:02:01.971Z,23.25
2018-07-28T01:07:05.858Z,23.60
2018-07-28T01:12:09.647Z,20.50
2018-07-28T01:17:13.382Z,22.75
2018-07-28T01:22:17.085Z,27.60
2018-07-28T01:27:20.838Z,23.00
2018-07-28T01:32:24.502Z,23.50
2018-07-28T01:37:28.250Z,20.75
2018-07-28T01:42:31.894Z,24.60
2018-07-28T01:47:36.233Z,24.25
2018-07-28T01:52:40.365Z,24.60
2018-07-28T01:57:44.186Z,23.75
2018-07-28T02:02:47.984Z,23.20
2018-07-28T02:07:51.937Z,22.00
2018-07-28T02:12:56.244Z,22.60
2018-07-28T02:17:59.994Z,24.00
2018-07-28T02:23:03.812Z,23.00
2018-07-28T02:28:08.102Z,18.00
2018-07-28T02:33:12.449Z,20.00
2018-07-28T02:38:16.463Z,21.50
2018-07-28T02:43:20.489Z,21.80
2018-07-28T02:48:24.331Z,21.00
2018-07-28T02:53:28.298Z,16.60
2018-07-28T02:58:32.130Z,18.80
2018-07-28T03:03:35.875Z,20.20
2018-07-28T03:08:39.772Z,18.75
2018-07-28T03:13:43.523Z,24.00
2018-07-28T03:18:47.233Z,21.25
2018-07-28T03:23:50.976Z,23.40
2018-07-28T03:28:54.741Z,23.50
2018-07-28T03:33:58.382Z,22.40
2018-07-28T03:39:02.288Z,23.00
2018-07-28T03:44:06.121Z,20.50
2018-07-28T03:49:09.902Z,21.20
2018-07-28T03:54:13.586Z,21.25
2018-07-28T03:59:17.360Z,21.80
2018-07-28T04:04:21.029Z,24.60
2018-07-28T04:09:24.714Z,20.50
2018-07-28T04:14:28.436Z,22.50
2018-07-28T04:19:32.222Z,19.00
2018-07-28T04:24:35.941Z,20.50
2018-07-28T04:29:39.713Z,25.25
2018-07-28T04:34:43.366Z,23.00
2018-07-28T04:39:47.136Z,22.80
2018-07-28T04:44:50.875Z,20.50
2018-07-28T04:49:54.554Z,21.50
2018-07-28T04:54:58.258Z,22.60
2018-07-28T05:00:05.223Z,20.80
2018-07-28T05:05:08.913Z,22.00
2018-07-28T05:10:12.688Z,21.80
2018-07-28T05:15:16.381Z,20.00
2018-07-28T05:20:19.988Z,21.40
2018-07-28T05:25:23.826Z,19.80
2018-07-28T05:30:28.130Z,20.40
2018-07-28T05:35:31.873Z,23.60
2018-07-28T05:40:35.582Z,24.40
2018-07-28T05:45:39.222Z,20.75
2018-07-28T05:50:43.562Z,24.25
2018-07-28T05:55:47.247Z,20.75
2018-07-28T06:00:51.043Z,26.00
2018-07-28T06:05:54.850Z,20.50
2018-07-28T06:10:58.578Z,19.50
2018-07-28T06:16:02.362Z,25.20
2018-07-28T06:21:06.209Z,23.80
2018-07-28T06:26:10.039Z,23.25
2018-07-28T06:31:13.723Z,23.80
2018-07-28T06:36:20.915Z,22.50
2018-07-28T06:41:25.851Z,19.25
2018-07-28T06:46:29.630Z,21.60
2018-07-28T06:51:33.453Z,19.50
2018-07-28T06:56:37.631Z,20.50
2018-07-28T07:01:42.442Z,23.25
2018-07-28T07:06:46.537Z,31.00
2018-07-28T07:11:50.226Z,30.25
2018-07-28T07:16:53.833Z,28.60
2018-07-28T07:21:57.549Z,26.25
2018-07-28T07:27:01.293Z,28.75
2018-07-28T07:32:05.063Z,27.20
2018-07-28T07:37:08.783Z,25.00
2018-07-28T07:42:12.678Z,28.75
2018-07-28T07:47:16.398Z,24.25
2018-07-28T07:52:20.155Z,25.80
2018-07-28T07:57:23.897Z,26.00
2018-07-28T08:02:27.672Z,24.50
2018-07-28T08:07:31.935Z,25.25
2018-07-28T08:12:35.688Z,24.60
2018-07-28T08:17:39.382Z,20.50
2018-07-28T08:22:43.104Z,23.40
2018-07-28T08:27:47.049Z,22.00
2018-07-28T08:32:50.832Z,22.80
2018-07-28T08:37:54.720Z,21.40
2018-07-28T08:42:58.542Z,20.00
2018-07-28T08:48:02.440Z,22.00
2018-07-28T08:53:06.565Z,20.00
2018-07-28T08:58:10.450Z,18.25
2018-07-28T09:03:15.125Z,19.75
2018-07-28T09:08:18.824Z,20.40
2018-07-28T09:13:22.514Z,19.25
2018-07-28T09:18:26.473Z,18.40
2018-07-28T09:23:30.301Z,19.25
2018-07-28T09:28:33.931Z,22.60
2018-07-28T09:33:37.724Z,23.00
2018-07-28T09:38:41.430Z,16.50
2018-07-28T09:43:45.205Z,16.60
2018-07-28T09:48:48.918Z,20.60
2018-07-28T09:53:52.546Z,16.25
2018-07-28T09:58:56.188Z,17.00
2018-07-28T10:03:59.945Z,18.40
2018-07-28T10:09:03.726Z,19.00
2018-07-28T10:14:07.504Z,18.75
2018-07-28T10:19:11.242Z,17.25
2018-07-28T10:24:14.964Z,16.25
2018-07-28T10:29:18.651Z,18.50
2018-07-28T10:34:22.325Z,14.00
2018-07-28T10:39:26.060Z,21.40
2018-07-28T10:44:29.810Z,19.25
2018-07-28T10:49:33.534Z,19.25
2018-07-28T10:54:37.207Z,22.25
2018-07-28T10:59:40.819Z,19.00
2018-07-28T11:04:44.602Z,18.50
2018-07-28T11:09:48.281Z,16.75
2018-07-28T11:14:51.929Z,17.40
2018-07-28T11:19:55.598Z,17.25
2018-07-28T11:24:59.374Z,18.60
2018-07-28T11:30:05.545Z,17.20
2018-07-28T11:35:20.374Z,17.00
2018-07-28T11:41:33.237Z,16.25
2018-07-28T11:46:37.031Z,18.60
2018-07-28T11:51:40.755Z,18.20
2018-07-28T11:56:44.383Z,21.50
2018-07-28T12:01:48.230Z,13.00
2018-07-28T12:06:51.907Z,19.20
2018-07-28T12:11:55.635Z,16.80
2018-07-28T12:16:59.330Z,15.00
2018-07-28T12:22:03.006Z,17.40
2018-07-28T12:27:06.839Z,13.25
2018-07-28T12:32:10.576Z,17.00
2018-07-28T12:37:14.191Z,15.00
2018-07-28T12:42:17.850Z,17.20
2018-07-28T12:47:21.503Z,15.00
2018-07-28T12:52:25.190Z,22.00
2018-07-28T12:57:29.259Z,16.40
2018-07-28T13:02:33.050Z,14.40
2018-07-28T13:07:36.785Z,15.60
2018-07-28T13:12:40.449Z,17.25
2018-07-28T13:17:44.262Z,14.75
2018-07-28T13:22:47.898Z,14.80
2018-07-28T13:27:51.543Z,14.75
2018-07-28T13:32:55.155Z,13.25
2018-07-28T13:37:59.966Z,13.40
2018-07-28T13:43:03.800Z,19.00
2018-07-28T13:48:07.533Z,15.00
2018-07-28T13:53:11.516Z,15.00
2018-07-28T13:58:15.359Z,14.00
2018-07-28T14:03:19.114Z,15.40
2018-07-28T14:08:22.791Z,15.60
2018-07-28T14:13:26.553Z,14.75
2018-07-28T14:18:30.503Z,14.50
2018-07-28T14:23:34.284Z,14.60
2018-07-28T14:28:38.230Z,14.60
2018-07-28T14:33:42.028Z,13.80
2018-07-28T14:38:45.689Z,15.40
2018-07-28T14:43:49.389Z,16.75
2018-07-28T14:48:53.323Z,18.60
2018-07-28T14:53:57.074Z,17.80
2018-07-28T14:59:01.193Z,16.60
2018-07-28T15:04:05.039Z,15.40
2018-07-28T15:09:10.590Z,15.50
2018-07-28T15:14:14.319Z,16.20
2018-07-28T15:19:18.324Z,18.00
2018-07-28T15:24:22.974Z,18.00
2018-07-28T15:29:28.003Z,16.25
2018-07-28T15:34:31.757Z,16.80
2018-07-28T15:39:35.546Z,21.25
2018-07-28T15:44:39.215Z,19.25
2018-07-28T15:49:44.294Z,19.00
2018-07-28T15:54:48.046Z,18.00
2018-07-28T15:59:51.792Z,13.75
2018-07-28T16:04:55.585Z,17.00
2018-07-28T16:09:59.419Z,18.25
2018-07-28T16:15:05.685Z,20.40
2018-07-28T16:20:09.601Z,20.60
2018-07-28T16:25:13.518Z,19.00
2018-07-28T16:30:17.213Z,20.20
2018-07-28T16:35:20.960Z,19.50
2018-07-28T16:40:24.811Z,19.60
2018-07-28T16:45:29.025Z,24.00
2018-07-28T16:50:32.878Z,16.00
2018-07-28T16:55:39.021Z,14.40
2018-07-28T17:00:42.647Z,16.60
2018-07-28T17:05:46.419Z,19.75
2018-07-28T17:10:50.223Z,18.50
2018-07-28T17:15:56.955Z,17.25
2018-07-28T17:21:00.817Z,18.40
2018-07-28T17:26:04.694Z,16.00
2018-07-28T17:31:08.832Z,17.25
2018-07-28T17:36:12.664Z,16.00
2018-07-28T17:41:16.802Z,14.00
2018-07-28T17:46:20.527Z,22.00
2018-07-28T17:51:24.422Z,15.75
2018-07-28T17:56:28.333Z,16.75
2018-07-28T18:01:32.122Z,17.60
2018-07-28T18:06:35.818Z,16.40
2018-07-28T18:11:39.514Z,14.75
2018-07-28T18:16:43.214Z,20.25
2018-07-28T18:21:46.891Z,17.25
2018-07-28T18:26:50.673Z,13.80
2018-07-28T18:31:55.447Z,23.00
2018-07-28T18:37:00.101Z,17.00
2018-07-28T18:42:03.968Z,17.25
2018-07-28T18:47:07.759Z,21.75
2018-07-28T18:52:11.843Z,21.00
2018-07-28T18:57:15.575Z,22.25
2018-07-28T19:02:19.517Z,18.25
2018-07-28T19:07:24.371Z,19.40
2018-07-28T19:12:33.818Z,19.40
2018-07-28T19:17:42.843Z,19.25
2018-07-28T19:22:51.777Z,17.25
2018-07-28T19:28:00.804Z,18.50
2018-07-28T19:33:12.708Z,15.50
2018-07-28T19:38:16.603Z,17.25
2018-07-28T19:43:20.378Z,21.00
2018-07-28T19:48:24.099Z,16.25
2018-07-28T19:53:27.799Z,19.00
2018-07-28T19:58:31.498Z,19.50
2018-07-28T20:03:35.165Z,18.60
2018-07-28T20:25:04.197Z,20.60
2018-07-28T20:30:08.109Z,22.60
2018-07-28T20:35:11.801Z,18.40
2018-07-28T20:40:15.463Z,20.60
2018-07-28T20:45:19.187Z,22.75
2018-07-28T20:50:22.889Z,22.00
2018-07-28T20:55:27.047Z,17.40
2018-07-28T21:00:30.806Z,20.00
2018-07-28T21:05:34.666Z,16.50
2018-07-28T21:10:38.366Z,16.50
2018-07-28T21:15:42.128Z,20.25
2018-07-28T21:20:45.919Z,14.75
2018-07-28T21:25:49.757Z,16.20
2018-07-28T21:30:53.375Z,14.25
2018-07-28T21:35:57.089Z,17.25
2018-07-28T21:41:00.729Z,14.25
2018-07-28T21:46:04.488Z,15.75
2018-07-28T21:51:08.372Z,12.50
2018-07-28T21:56:12.096Z,15.00
2018-07-28T22:01:17.319Z,13.80
2018-07-28T22:06:20.981Z,14.00
2018-07-28T22:11:24.676Z,14.00
2018-07-28T22:16:28.338Z,15.00
2018-07-28T22:21:32.047Z,14.50
2018-07-28T22:26:35.765Z,13.20
2018-07-28T22:31:39.658Z,13.00
2018-07-28T22:36:43.335Z,11.75
2018-07-28T22:41:47.033Z,12.40
2018-07-28T22:46:50.755Z,10.40
2018-07-28T22:51:54.422Z,10.00
2018-07-28T22:56:58.096Z,11.20
2018-07-28T23:02:01.733Z,11.80
2018-07-28T23:07:05.462Z,7.25
2018-07-28T23:12:09.074Z,9.25
2018-07-28T23:17:12.667Z,8.20
2018-07-28T23:22:19.294Z,9.00
2018-07-28T23:27:22.938Z,10.40
2018-07-28T23:32:26.749Z,9.80
2018-07-28T23:37:30.441Z,10.50
2018-07-28T23:42:34.113Z,8.25
2018-07-28T23:47:37.771Z,9.40
2018-07-28T23:52:41.406Z,8.50
2018-07-28T23:57:45.140Z,8.00
